createdAt,value
2023-05-18T00:01:47.345Z,9.46
2023-05-18T00:04:15.665Z,9.46
2023-05-18T00:06:43.815Z,9.45
2023-05-18T00:09:11.697Z,9.46
2023-05-18T00:11:42.350Z,9.44
2023-05-18T00:14:10.275Z,9.41
2023-05-18T00:16:38.280Z,9.40
2023-05-18T00:19:06.561Z,9.38
2023-05-18T00:21:34.897Z,9.37
2023-05-18T00:24:03.100Z,9.35
2023-05-18T00:26:30.998Z,9.33
2023-05-18T00:28:58.918Z,9.32
2023-05-18T00:31:26.943Z,9.30
2023-05-18T00:33:54.864Z,9.29
2023-05-18T00:36:22.740Z,9.26
2023-05-18T00:38:50.727Z,9.24
2023-05-18T00:41:18.673Z,9.23
2023-05-18T00:43:46.774Z,9.22
2023-05-18T00:46:14.916Z,9.20
2023-05-18T00:48:43.161Z,9.17
2023-05-18T00:51:11.513Z,9.15
2023-05-18T00:53:40.650Z,9.14
2023-05-18T00:56:10.972Z,9.13
2023-05-18T00:58:40.321Z,9.12
2023-05-18T01:01:08.561Z,9.08
2023-05-18T01:03:39.647Z,9.08
2023-05-18T01:06:08.502Z,9.05
2023-05-18T01:08:38.190Z,9.05
2023-05-18T01:11:28.297Z,9.04
2023-05-18T01:14:19.457Z,9.03
2023-05-18T01:16:56.075Z,9.02
2023-05-18T01:19:43.100Z,9.00
2023-05-18T01:22:39.076Z,9.00
2023-05-18T01:25:48.582Z,8.99
2023-05-18T01:28:20.144Z,8.96
2023-05-18T01:30:49.423Z,8.93
2023-05-18T01:33:17.466Z,8.90
2023-05-18T01:35:49.479Z,8.90
2023-05-18T01:38:29.320Z,8.88
2023-05-18T01:41:02.933Z,8.87
2023-05-18T01:43:39.420Z,8.86
2023-05-18T01:46:23.606Z,8.88
2023-05-18T01:48:57.680Z,8.87
2023-05-18T01:51:30.881Z,8.86
2023-05-18T01:54:04.429Z,8.85
2023-05-18T01:56:34.628Z,8.85
2023-05-18T01:59:03.301Z,8.84
2023-05-18T02:01:32.180Z,8.80
2023-05-18T02:04:00.261Z,8.85
2023-05-18T02:06:28.315Z,8.84
2023-05-18T02:08:56.719Z,8.83
2023-05-18T02:11:24.638Z,8.82
2023-05-18T02:13:52.678Z,8.77
2023-05-18T02:16:21.310Z,8.78
2023-05-18T02:18:49.521Z,8.78
2023-05-18T02:21:17.438Z,8.76
2023-05-18T02:23:45.347Z,8.75
2023-05-18T02:26:13.488Z,8.73
2023-05-18T02:28:41.769Z,8.73
2023-05-18T02:31:11.171Z,8.73
2023-05-18T02:33:42.434Z,8.73
2023-05-18T02:36:14.881Z,8.71
2023-05-18T02:38:44.714Z,8.71
2023-05-18T02:41:13.313Z,8.72
2023-05-18T02:43:41.412Z,8.70
2023-05-18T02:46:09.463Z,8.69
2023-05-18T02:48:37.718Z,8.67
2023-05-18T02:51:05.797Z,8.64
2023-05-18T02:53:33.736Z,8.63
2023-05-18T02:56:04.565Z,8.61
2023-05-18T02:58:33.012Z,8.60
2023-05-18T03:01:01.604Z,8.58
2023-05-18T03:03:29.620Z,8.61
2023-05-18T03:05:57.500Z,8.60
2023-05-18T03:08:28.035Z,8.60
2023-05-18T03:10:56.594Z,8.57
2023-05-18T03:13:24.589Z,8.56
2023-05-18T03:15:53.186Z,8.55
2023-05-18T03:18:21.142Z,8.55
2023-05-18T03:20:49.039Z,8.51
2023-05-18T03:23:17.591Z,8.50
2023-05-18T03:25:46.235Z,8.47
2023-05-18T03:28:14.205Z,8.47
2023-05-18T03:30:42.237Z,8.49
2023-05-18T03:33:10.262Z,8.47
2023-05-18T03:35:38.278Z,8.47
2023-05-18T03:38:06.240Z,8.45
2023-05-18T03:40:34.322Z,8.46
2023-05-18T03:43:02.997Z,8.43
2023-05-18T03:45:31.131Z,8.44
2023-05-18T03:47:59.318Z,8.42
2023-05-18T03:50:27.363Z,8.39
2023-05-18T03:52:55.468Z,8.41
2023-05-18T03:55:23.493Z,8.41
2023-05-18T03:57:51.447Z,8.40
2023-05-18T04:00:19.698Z,8.40
2023-05-18T04:02:48.512Z,8.38
2023-05-18T04:05:16.672Z,8.38
2023-05-18T04:07:47.971Z,8.34
2023-05-18T04:10:16.136Z,8.35
2023-05-18T04:12:44.097Z,8.35
2023-05-18T04:15:15.700Z,8.34
2023-05-18T04:17:46.986Z,8.33
2023-05-18T04:20:15.729Z,8.37
2023-05-18T04:22:49.408Z,8.35
2023-05-18T04:25:17.431Z,8.37
2023-05-18T04:27:51.307Z,8.35
2023-05-18T04:30:20.046Z,8.38
2023-05-18T04:32:48.355Z,8.38
2023-05-18T04:35:16.710Z,8.37
2023-05-18T04:37:44.699Z,8.38
2023-05-18T04:40:18.226Z,8.40
2023-05-18T04:42:46.775Z,8.40
2023-05-18T04:45:21.975Z,8.40
2023-05-18T04:47:54.700Z,8.41
2023-05-18T04:50:24.909Z,8.38
2023-05-18T04:52:54.032Z,8.40
2023-05-18T04:55:29.830Z,8.38
2023-05-18T04:57:58.807Z,8.40
2023-05-18T05:00:29.403Z,8.42
2023-05-18T05:02:58.715Z,8.44
2023-05-18T05:05:27.808Z,8.48
2023-05-18T05:07:57.025Z,8.48
2023-05-18T05:10:24.975Z,8.50
2023-05-18T05:12:53.188Z,8.52
2023-05-18T05:15:21.712Z,8.55
2023-05-18T05:17:50.478Z,8.59
2023-05-18T05:20:19.104Z,8.59
2023-05-18T05:22:47.485Z,8.65
2023-05-18T05:25:15.514Z,8.70
2023-05-18T05:27:43.398Z,8.74
2023-05-18T05:30:11.697Z,8.80
2023-05-18T05:32:39.632Z,8.83
2023-05-18T05:35:07.990Z,8.89
2023-05-18T05:37:36.384Z,8.96
2023-05-18T05:40:07.379Z,9.03
2023-05-18T05:42:35.374Z,9.10
2023-05-18T05:45:03.454Z,9.19
2023-05-18T05:47:31.382Z,9.24
2023-05-18T05:49:59.320Z,9.28
2023-05-18T05:52:30.019Z,9.37
2023-05-18T05:54:57.978Z,9.42
2023-05-18T05:57:25.913Z,9.47
2023-05-18T05:59:53.871Z,9.51
2023-05-18T06:02:22.208Z,9.55
2023-05-18T06:04:50.112Z,9.63
2023-05-18T06:07:18.377Z,9.68
2023-05-18T06:09:46.283Z,9.74
2023-05-18T06:12:14.249Z,9.81
2023-05-18T06:14:42.149Z,9.84
2023-05-18T06:17:10.032Z,9.89
2023-05-18T06:19:38.016Z,9.93
2023-05-18T06:22:06.120Z,9.98
2023-05-18T06:24:34.719Z,10.01
2023-05-18T06:27:02.670Z,10.05
2023-05-18T06:29:31.951Z,10.10
2023-05-18T06:32:00.068Z,10.17
2023-05-18T06:34:28.181Z,10.26
2023-05-18T06:36:56.074Z,10.34
2023-05-18T06:39:23.930Z,10.39
2023-05-18T06:41:53.394Z,10.44
2023-05-18T06:44:21.306Z,10.50
2023-05-18T06:46:50.296Z,10.57
2023-05-18T06:49:18.217Z,10.60
2023-05-18T06:51:47.075Z,10.64
2023-05-18T06:54:15.507Z,10.66
2023-05-18T06:56:43.512Z,10.70
2023-05-18T06:59:11.405Z,10.68
2023-05-18T07:01:39.586Z,10.65
2023-05-18T07:04:08.130Z,10.66
2023-05-18T07:06:36.102Z,10.66
2023-05-18T07:09:05.245Z,10.66
2023-05-18T07:11:33.184Z,10.69
2023-05-18T07:14:01.167Z,10.72
2023-05-18T07:16:29.662Z,10.77
2023-05-18T07:19:00.168Z,10.80
2023-05-18T07:21:28.372Z,10.84
2023-05-18T07:23:56.408Z,10.85
2023-05-18T07:26:24.726Z,10.93
2023-05-18T07:28:52.964Z,10.98
2023-05-18T07:31:23.013Z,11.08
2023-05-18T07:33:51.331Z,11.14
2023-05-18T07:36:19.350Z,11.21
2023-05-18T07:38:47.303Z,11.24
2023-05-18T07:41:15.290Z,11.30
2023-05-18T07:43:43.237Z,11.35
2023-05-18T07:46:11.185Z,11.39
2023-05-18T07:48:40.843Z,11.44
2023-05-18T07:51:09.471Z,11.52
2023-05-18T07:53:39.222Z,11.58
2023-05-18T07:56:08.907Z,11.64
2023-05-18T07:58:37.862Z,11.70
2023-05-18T08:01:05.865Z,11.75
2023-05-18T08:03:34.259Z,11.81
2023-05-18T08:06:02.155Z,11.90
2023-05-18T08:08:30.296Z,11.95
2023-05-18T08:10:59.462Z,11.97
2023-05-18T08:13:27.969Z,11.99
2023-05-18T08:16:07.214Z,11.98
2023-05-18T08:18:38.935Z,11.99
2023-05-18T08:21:09.948Z,12.00
2023-05-18T08:23:38.860Z,12.03
2023-05-18T08:26:07.151Z,12.08
2023-05-18T08:28:35.094Z,12.09
2023-05-18T08:31:03.039Z,12.12
2023-05-18T08:33:31.047Z,12.18
2023-05-18T08:35:59.076Z,12.23
2023-05-18T08:38:27.207Z,12.32
2023-05-18T08:41:21.086Z,12.39
2023-05-18T08:43:56.232Z,12.49
2023-05-18T08:46:34.796Z,12.62
2023-05-18T08:49:04.958Z,12.78
2023-05-18T08:51:36.513Z,12.88
2023-05-18T08:54:07.491Z,13.00
2023-05-18T08:56:35.995Z,13.10
2023-05-18T08:59:09.156Z,13.17
2023-05-18T09:01:37.577Z,13.26
2023-05-18T09:04:06.743Z,13.34
2023-05-18T09:06:37.278Z,13.40
2023-05-18T09:09:08.856Z,13.48
2023-05-18T09:11:37.402Z,13.60
2023-05-18T09:14:05.366Z,13.78
2023-05-18T09:16:34.407Z,13.95
2023-05-18T09:19:02.715Z,14.14
2023-05-18T09:21:33.585Z,14.23
2023-05-18T09:24:02.580Z,14.22
2023-05-18T09:26:30.706Z,14.28
2023-05-18T09:29:00.726Z,14.41
2023-05-18T09:31:28.887Z,14.55
2023-05-18T09:34:00.333Z,14.68
2023-05-18T09:36:30.502Z,14.79
2023-05-18T09:38:59.808Z,14.89
2023-05-18T09:41:29.439Z,14.97
2023-05-18T09:43:57.390Z,14.98
2023-05-18T09:46:25.594Z,15.03
2023-05-18T09:48:55.746Z,15.10
2023-05-18T09:51:26.492Z,15.13
2023-05-18T09:53:59.474Z,15.17
2023-05-18T09:56:28.262Z,15.20
2023-05-18T09:58:56.634Z,15.25
2023-05-18T10:01:24.727Z,15.31
2023-05-18T10:03:54.586Z,15.34
2023-05-18T10:06:29.808Z,15.35
2023-05-18T10:09:03.524Z,15.36
2023-05-18T10:11:35.061Z,15.33
2023-05-18T10:14:03.330Z,15.34
2023-05-18T10:16:31.333Z,15.34
2023-05-18T10:19:02.438Z,15.32
2023-05-18T10:21:35.152Z,15.30
2023-05-18T10:24:07.023Z,15.31
2023-05-18T10:26:39.855Z,15.35
2023-05-18T10:29:09.276Z,15.44
2023-05-18T10:31:39.665Z,15.45
2023-05-18T10:34:09.532Z,15.52
2023-05-18T10:36:39.343Z,15.56
2023-05-18T10:39:08.524Z,15.60
2023-05-18T10:41:38.197Z,15.59
2023-05-18T10:44:07.734Z,15.62
2023-05-18T10:46:37.437Z,15.63
2023-05-18T10:49:07.046Z,15.62
2023-05-18T10:51:36.548Z,15.64
2023-05-18T10:54:14.962Z,15.62
2023-05-18T10:56:49.030Z,15.63
2023-05-18T10:59:17.978Z,15.62
2023-05-18T11:01:47.834Z,15.63
2023-05-18T11:04:16.013Z,15.65
2023-05-18T11:06:43.967Z,15.67
2023-05-18T11:09:25.009Z,15.73
2023-05-18T11:11:59.299Z,15.75
2023-05-18T11:14:31.882Z,15.73
2023-05-18T11:17:21.928Z,15.69
2023-05-18T11:20:11.091Z,15.65
2023-05-18T11:22:46.532Z,15.59
2023-05-18T11:25:32.500Z,15.55
2023-05-18T11:28:03.574Z,15.53
2023-05-18T11:30:34.576Z,15.52
2023-05-18T11:33:15.200Z,15.48
2023-05-18T11:36:06.146Z,15.40
2023-05-18T11:38:56.387Z,15.40
2023-05-18T11:41:40.809Z,15.39
2023-05-18T11:44:16.191Z,15.44
2023-05-18T11:47:02.835Z,15.46
2023-05-18T11:49:38.899Z,15.48
2023-05-18T11:52:18.382Z,15.53
2023-05-18T11:54:57.356Z,15.58
2023-05-18T11:57:43.078Z,15.58
2023-05-18T12:00:13.522Z,15.56
2023-05-18T12:02:45.691Z,15.56
2023-05-18T12:05:15.100Z,15.54
2023-05-18T12:07:44.117Z,15.51
2023-05-18T12:10:13.988Z,15.50
2023-05-18T12:12:43.062Z,15.53
2023-05-18T12:15:13.490Z,15.47
2023-05-18T12:17:44.086Z,15.48
2023-05-18T12:20:15.315Z,15.44
2023-05-18T12:22:45.579Z,15.40
2023-05-18T12:25:13.844Z,15.36
2023-05-18T12:27:45.146Z,15.29
2023-05-18T12:30:15.286Z,15.25
2023-05-18T12:32:48.849Z,15.19
2023-05-18T12:35:17.096Z,15.17
2023-05-18T12:37:46.516Z,15.17
2023-05-18T12:40:20.430Z,15.17
2023-05-18T12:43:02.151Z,15.13
2023-05-18T12:45:35.637Z,15.12
2023-05-18T12:48:10.549Z,15.13
2023-05-18T12:50:47.236Z,15.14
2023-05-18T12:53:15.275Z,15.10
2023-05-18T12:55:43.213Z,15.09
2023-05-18T12:58:17.905Z,15.05
2023-05-18T13:00:47.803Z,14.98
2023-05-18T13:03:18.098Z,14.95
2023-05-18T13:05:48.048Z,14.93
2023-05-18T13:08:24.974Z,14.95
2023-05-18T13:11:05.180Z,14.95
2023-05-18T13:13:40.442Z,14.90
2023-05-18T13:16:17.788Z,14.87
2023-05-18T13:18:48.377Z,14.82
2023-05-18T13:21:16.395Z,14.83
2023-05-18T13:23:44.638Z,14.84
2023-05-18T13:26:12.563Z,14.91
2023-05-18T13:28:40.817Z,14.91
2023-05-18T13:31:10.535Z,14.93
2023-05-18T13:33:40.263Z,14.90
2023-05-18T13:36:08.516Z,14.88
2023-05-18T13:38:38.538Z,14.90
2023-05-18T13:41:07.195Z,14.92
2023-05-18T13:43:35.163Z,14.95
2023-05-18T13:46:03.598Z,14.91
2023-05-18T13:48:31.859Z,14.95
2023-05-18T13:50:59.868Z,14.91
2023-05-18T13:53:28.064Z,14.93
2023-05-18T13:55:56.113Z,14.93
2023-05-18T13:58:25.153Z,14.92
2023-05-18T14:00:55.180Z,14.90
2023-05-18T14:03:23.314Z,14.90
2023-05-18T14:05:51.341Z,14.90
2023-05-18T14:08:19.294Z,14.90
2023-05-18T14:10:47.247Z,14.93
2023-05-18T14:13:15.206Z,14.96
2023-05-18T14:15:43.109Z,14.97
2023-05-18T14:18:11.196Z,15.02
2023-05-18T14:20:39.504Z,15.03
2023-05-18T14:23:09.651Z,15.03
2023-05-18T14:25:38.279Z,15.04
2023-05-18T14:28:06.169Z,15.05
2023-05-18T14:30:34.093Z,15.05
2023-05-18T14:33:02.865Z,15.06
2023-05-18T14:35:30.789Z,15.07
2023-05-18T14:37:58.658Z,15.09
2023-05-18T14:40:26.577Z,15.07
2023-05-18T14:42:54.430Z,15.05
2023-05-18T14:45:22.523Z,15.07
2023-05-18T14:47:50.593Z,15.05
2023-05-18T14:50:18.565Z,14.99
2023-05-18T14:52:46.480Z,14.98
2023-05-18T14:55:14.407Z,14.98
2023-05-18T14:57:42.381Z,14.96
2023-05-18T15:00:11.434Z,14.95
2023-05-18T15:02:39.442Z,14.94
2023-05-18T15:05:07.562Z,14.93
2023-05-18T15:07:35.656Z,14.89
2023-05-18T15:10:03.673Z,14.90
2023-05-18T15:12:31.948Z,14.93
2023-05-18T15:14:59.881Z,14.93
2023-05-18T15:17:27.888Z,14.91
2023-05-18T15:19:55.768Z,14.90
2023-05-18T15:22:24.496Z,14.87
2023-05-18T15:24:52.470Z,14.91
2023-05-18T15:27:20.414Z,14.89
2023-05-18T15:29:49.668Z,14.90
2023-05-18T15:32:17.738Z,14.89
2023-05-18T15:34:45.731Z,14.88
2023-05-18T15:37:13.635Z,14.87
2023-05-18T15:39:41.591Z,14.84
2023-05-18T15:42:09.549Z,14.83
2023-05-18T15:44:37.466Z,14.79
2023-05-18T15:47:06.512Z,14.81
2023-05-18T15:49:34.438Z,14.78
2023-05-18T15:52:02.357Z,14.75
2023-05-18T15:54:30.512Z,14.75
2023-05-18T15:56:58.633Z,14.75
2023-05-18T15:59:26.629Z,14.72
2023-05-18T16:01:54.720Z,14.73
2023-05-18T16:04:22.714Z,14.86
2023-05-18T16:06:50.596Z,14.97
2023-05-18T16:09:18.828Z,14.99
2023-05-18T16:11:46.862Z,15.00
2023-05-18T16:14:14.779Z,14.96
2023-05-18T16:16:42.766Z,14.93
2023-05-18T16:19:10.825Z,14.89
2023-05-18T16:21:38.830Z,14.84
2023-05-18T16:24:07.940Z,14.83
2023-05-18T16:26:37.322Z,14.80
2023-05-18T16:29:07.959Z,14.77
2023-05-18T16:31:36.652Z,14.78
2023-05-18T16:34:06.036Z,14.77
2023-05-18T16:36:34.035Z,14.74
2023-05-18T16:39:04.211Z,14.73
2023-05-18T16:41:32.199Z,14.70
2023-05-18T16:44:00.128Z,14.69
2023-05-18T16:46:28.752Z,14.71
2023-05-18T16:48:56.786Z,14.71
2023-05-18T16:51:26.542Z,14.71
2023-05-18T16:53:55.277Z,14.71
2023-05-18T16:56:23.636Z,14.67
2023-05-18T16:58:53.813Z,14.63
2023-05-18T17:01:28.189Z,14.60
2023-05-18T17:03:57.047Z,14.61
2023-05-18T17:06:25.881Z,14.64
2023-05-18T17:08:58.865Z,14.65
2023-05-18T17:11:28.093Z,14.64
2023-05-18T17:13:56.195Z,14.64
2023-05-18T17:16:24.786Z,14.63
2023-05-18T17:18:52.751Z,14.62
2023-05-18T17:21:20.710Z,14.61
2023-05-18T17:23:48.731Z,14.60
2023-05-18T17:26:16.817Z,14.60
2023-05-18T17:28:44.698Z,14.58
2023-05-18T17:31:12.784Z,14.53
2023-05-18T17:33:40.813Z,14.54
2023-05-18T17:36:09.493Z,14.50
2023-05-18T17:38:37.540Z,14.46
2023-05-18T17:41:05.748Z,14.44
2023-05-18T17:43:33.902Z,14.40
2023-05-18T17:46:01.769Z,14.39
2023-05-18T17:48:29.690Z,14.37
2023-05-18T17:50:57.614Z,14.36
2023-05-18T17:53:25.595Z,14.33
2023-05-18T17:55:54.172Z,14.31
2023-05-18T17:58:22.242Z,14.30
2023-05-18T18:00:50.202Z,14.29
2023-05-18T18:03:18.623Z,14.28
2023-05-18T18:05:46.793Z,14.26
2023-05-18T18:08:16.128Z,14.27
2023-05-18T18:10:44.102Z,14.21
2023-05-18T18:13:12.058Z,14.19
2023-05-18T18:15:40.036Z,14.19
2023-05-18T18:18:08.165Z,14.15
2023-05-18T18:20:37.996Z,14.15
2023-05-18T18:23:06.050Z,14.14
2023-05-18T18:25:34.120Z,14.10
2023-05-18T18:28:02.142Z,14.09
2023-05-18T18:30:30.289Z,14.08
2023-05-18T18:32:58.356Z,14.09
2023-05-18T18:35:26.343Z,14.06
2023-05-18T18:37:54.261Z,14.05
2023-05-18T18:40:22.352Z,14.05
2023-05-18T18:42:50.323Z,14.04
2023-05-18T18:45:18.394Z,14.01
2023-05-18T18:47:46.924Z,13.99
2023-05-18T18:50:14.974Z,13.96
2023-05-18T18:52:42.902Z,13.95
2023-05-18T18:55:10.939Z,13.92
2023-05-18T18:57:38.789Z,13.93
2023-05-18T19:00:12.436Z,13.91
2023-05-18T19:02:41.443Z,13.87
2023-05-18T19:05:10.849Z,13.86
2023-05-18T19:07:39.112Z,13.84
2023-05-18T19:10:07.828Z,13.78
2023-05-18T19:12:35.669Z,13.78
2023-05-18T19:15:03.545Z,13.74
2023-05-18T19:17:31.533Z,13.71
2023-05-18T19:19:59.481Z,13.72
2023-05-18T19:22:27.386Z,13.71
2023-05-18T19:24:55.327Z,13.69
2023-05-18T19:27:23.252Z,13.66
2023-05-18T19:29:51.239Z,13.63
2023-05-18T19:32:19.277Z,13.62
2023-05-18T19:34:47.340Z,13.61
2023-05-18T19:37:15.258Z,13.58
2023-05-18T19:39:43.259Z,13.56
2023-05-18T19:42:11.211Z,13.52
2023-05-18T19:44:39.133Z,13.53
2023-05-18T19:47:07.374Z,13.51
2023-05-18T19:49:35.357Z,13.48
2023-05-18T19:52:09.226Z,13.46
2023-05-18T19:54:38.117Z,13.44
2023-05-18T19:57:06.364Z,13.42
2023-05-18T19:59:35.023Z,13.41
2023-05-18T20:02:06.079Z,13.38
2023-05-18T20:04:34.969Z,13.36
2023-05-18T20:07:03.105Z,13.33
2023-05-18T20:09:31.174Z,13.30
2023-05-18T20:12:00.147Z,13.29
2023-05-18T20:14:28.328Z,13.26
2023-05-18T20:16:58.306Z,13.21
2023-05-18T20:19:26.508Z,13.19
2023-05-18T20:21:54.565Z,13.19
2023-05-18T20:24:22.844Z,13.17
2023-05-18T20:26:51.945Z,13.15
2023-05-18T20:29:19.897Z,13.16
2023-05-18T20:31:48.123Z,13.11
2023-05-18T20:34:16.185Z,13.12
2023-05-18T20:36:44.112Z,13.09
2023-05-18T20:39:12.165Z,13.06
2023-05-18T20:41:41.459Z,13.04
2023-05-18T20:44:12.039Z,13.02
2023-05-18T20:46:43.516Z,13.01
2023-05-18T20:49:13.733Z,13.00
2023-05-18T20:51:41.727Z,12.98
2023-05-18T20:54:09.892Z,12.97
2023-05-18T20:56:37.921Z,12.96
2023-05-18T20:59:06.558Z,12.96
2023-05-18T21:01:40.306Z,12.96
2023-05-18T21:04:10.379Z,12.96
2023-05-18T21:06:41.857Z,12.95
2023-05-18T21:09:09.749Z,12.95
2023-05-18T21:11:37.824Z,12.92
2023-05-18T21:14:05.812Z,12.89
2023-05-18T21:16:34.044Z,12.91
2023-05-18T21:19:02.414Z,12.89
2023-05-18T21:21:30.489Z,12.86
2023-05-18T21:23:58.595Z,12.86
2023-05-18T21:26:27.805Z,12.84
2023-05-18T21:28:55.800Z,12.83
2023-05-18T21:31:23.899Z,12.83
2023-05-18T21:33:53.898Z,12.83
2023-05-18T21:36:35.303Z,12.81
2023-05-18T21:39:07.154Z,12.80
2023-05-18T21:41:36.525Z,12.79
2023-05-18T21:44:04.626Z,12.77
2023-05-18T21:46:32.890Z,12.78
2023-05-18T21:49:03.687Z,12.79
2023-05-18T21:51:34.439Z,12.77
2023-05-18T21:54:02.806Z,12.77
2023-05-18T21:56:31.210Z,12.73
2023-05-18T21:58:59.261Z,12.74
2023-05-18T22:01:27.824Z,12.72
2023-05-18T22:03:55.773Z,12.72
2023-05-18T22:06:24.001Z,12.69
2023-05-18T22:08:52.221Z,12.68
2023-05-18T22:11:20.187Z,12.69
2023-05-18T22:13:48.110Z,12.68
2023-05-18T22:16:16.129Z,12.66
2023-05-18T22:18:44.123Z,12.67
2023-05-18T22:21:12.211Z,12.66
2023-05-18T22:23:40.510Z,12.65
2023-05-18T22:26:08.434Z,12.64
2023-05-18T22:28:36.454Z,12.64
2023-05-18T22:31:04.386Z,12.62
2023-05-18T22:33:32.403Z,12.61
2023-05-18T22:36:00.296Z,12.61
2023-05-18T22:38:29.044Z,12.62
2023-05-18T22:40:57.610Z,12.62
2023-05-18T22:43:25.626Z,12.56
2023-05-18T22:45:53.647Z,12.55
2023-05-18T22:48:21.618Z,12.56
2023-05-18T22:50:49.677Z,12.53
2023-05-18T22:53:17.729Z,12.53
2023-05-18T22:55:45.715Z,12.53
2023-05-18T22:58:13.581Z,12.50
2023-05-18T23:00:41.481Z,12.47
2023-05-18T23:03:09.588Z,12.49
2023-05-18T23:05:38.205Z,12.47
2023-05-18T23:08:06.346Z,12.44
2023-05-18T23:10:34.619Z,12.45
2023-05-18T23:13:03.458Z,12.41
2023-05-18T23:15:31.697Z,12.40
2023-05-18T23:17:59.629Z,12.40
2023-05-18T23:20:27.736Z,12.38
2023-05-18T23:22:55.706Z,12.35
2023-05-18T23:25:24.070Z,12.34
2023-05-18T23:27:52.322Z,12.30
2023-05-18T23:30:20.366Z,12.28
2023-05-18T23:32:48.770Z,12.26
2023-05-18T23:35:17.497Z,12.24
2023-05-18T23:37:50.333Z,12.25
2023-05-18T23:40:20.479Z,12.24
2023-05-18T23:42:48.700Z,12.21
2023-05-18T23:45:17.165Z,12.19
2023-05-18T23:47:45.446Z,12.16
2023-05-18T23:50:14.174Z,12.12
2023-05-18T23:52:43.603Z,12.11
2023-05-18T23:55:12.573Z,12.09
2023-05-18T23:57:40.778Z,12.05
